WST516 MYNN-MYAK
Flight info
| Callsign | WST516 |
|---|---|
| Flight time | 0h 20m |
| Altitude | 12000 |
| Route | ZQA |
| Aircraft | E145/M-SDFGIRW/S |
Departure
| Time | 2026-05-05 17:14 |
|---|---|
| Airport | Lynden Pindling International Airport (MYNN) |
Arrival
| Time | 2026-05-05 17:35 |
|---|---|
| Airport | Congo Town Airport (MYAK) |
| Time | Latitude | Longitude | Altitude | Speed | Heading |
|---|---|---|---|---|---|
| 2026-05-05 16:55 | 25.04747 | -77.46596 | 26 ft | 0 kts | 179° |
| 2026-05-05 17:11 | 25.04742 | -77.46600 | 26 ft | 3 kts | 232° |
| 2026-05-05 17:11 | 25.04738 | -77.46626 | 25 ft | 2 kts | 264° |
| 2026-05-05 17:11 | 25.04735 | -77.46664 | 24 ft | 7 kts | 263° |
| 2026-05-05 17:11 | 25.04713 | -77.46729 | 23 ft | 10 kts | 250° |
| 2026-05-05 17:12 | 25.04730 | -77.46811 | 23 ft | 12 kts | 316° |
| 2026-05-05 17:12 | 25.04793 | -77.46879 | 25 ft | 13 kts | 316° |
| 2026-05-05 17:12 | 25.04866 | -77.46957 | 26 ft | 17 kts | 314° |
| 2026-05-05 17:12 | 25.04970 | -77.47075 | 27 ft | 25 kts | 313° |
| 2026-05-05 17:13 | 25.05120 | -77.47239 | 24 ft | 34 kts | 313° |
| 2026-05-05 17:13 | 25.05218 | -77.47411 | 22 ft | 23 kts | 262° |
| 2026-05-05 17:13 | 25.05149 | -77.47517 | 21 ft | 15 kts | 155° |
| 2026-05-05 17:13 | 25.05121 | -77.47495 | 21 ft | 0 kts | 137° |
| 2026-05-05 17:14 | 25.05065 | -77.47433 | 22 ft | 45 kts | 134° |
| 2026-05-05 17:14 | 25.04642 | -77.46971 | 29 ft | 121 kts | 133° |
| 2026-05-05 17:14 | 25.03963 | -77.46188 | 267 ft | 154 kts | 135° |
| 2026-05-05 17:14 | 25.03203 | -77.45314 | 950 ft | 168 kts | 137° |
| 2026-05-05 17:15 | 25.02254 | -77.44310 | 1407 ft | 203 kts | 136° |
| 2026-05-05 17:15 | 25.01192 | -77.43137 | 1862 ft | 236 kts | 136° |
| 2026-05-05 17:15 | 24.99950 | -77.41758 | 2313 ft | 269 kts | 136° |
| 2026-05-05 17:15 | 24.98644 | -77.40118 | 2747 ft | 300 kts | 123° |
| 2026-05-05 17:16 | 24.97836 | -77.37880 | 3181 ft | 329 kts | 102° |
| 2026-05-05 17:16 | 24.97750 | -77.35339 | 3612 ft | 324 kts | 87° |
| 2026-05-05 17:16 | 24.97864 | -77.33012 | 3995 ft | 282 kts | 92° |
| 2026-05-05 17:16 | 24.97383 | -77.31110 | 4368 ft | 239 kts | 125° |
| 2026-05-05 17:17 | 24.96244 | -77.30062 | 4748 ft | 195 kts | 166° |
| 2026-05-05 17:17 | 24.95078 | -77.30083 | 5124 ft | 149 kts | 200° |
| 2026-05-05 17:17 | 24.94179 | -77.30405 | 5411 ft | 141 kts | 202° |
| 2026-05-05 17:17 | 24.93160 | -77.30787 | 5790 ft | 163 kts | 201° |
| 2026-05-05 17:18 | 24.92006 | -77.31219 | 5967 ft | 191 kts | 201° |
| 2026-05-05 17:18 | 24.90637 | -77.31741 | 5985 ft | 226 kts | 200° |
| 2026-05-05 17:18 | 24.89022 | -77.32317 | 5972 ft | 256 kts | 200° |
| 2026-05-05 17:18 | 24.87264 | -77.32958 | 5967 ft | 274 kts | 200° |
| 2026-05-05 17:19 | 24.85417 | -77.33634 | 5962 ft | 281 kts | 200° |
| 2026-05-05 17:19 | 24.83552 | -77.34319 | 5955 ft | 282 kts | 200° |
| 2026-05-05 17:19 | 24.81708 | -77.34995 | 5954 ft | 276 kts | 200° |
| 2026-05-05 17:19 | 24.79930 | -77.35646 | 5943 ft | 259 kts | 200° |
| 2026-05-05 17:20 | 24.78276 | -77.36252 | 5942 ft | 244 kts | 200° |
| 2026-05-05 17:20 | 24.76704 | -77.36828 | 5940 ft | 231 kts | 201° |
| 2026-05-05 17:20 | 24.75225 | -77.37369 | 5942 ft | 219 kts | 201° |
| 2026-05-05 17:20 | 24.73813 | -77.37886 | 5945 ft | 209 kts | 201° |
| 2026-05-05 17:21 | 24.72446 | -77.38387 | 5945 ft | 200 kts | 201° |
| 2026-05-05 17:21 | 24.71163 | -77.38856 | 5948 ft | 191 kts | 201° |
| 2026-05-05 17:21 | 24.69910 | -77.39315 | 5946 ft | 184 kts | 201° |
| 2026-05-05 17:22 | 24.67589 | -77.40164 | 5938 ft | 168 kts | 202° |
| 2026-05-05 17:22 | 24.66495 | -77.40564 | 5938 ft | 161 kts | 202° |
| 2026-05-05 17:22 | 24.65448 | -77.40947 | 5933 ft | 153 kts | 201° |
| 2026-05-05 17:22 | 24.64465 | -77.41306 | 5907 ft | 146 kts | 202° |
| 2026-05-05 17:23 | 24.63513 | -77.41654 | 5876 ft | 139 kts | 201° |
| 2026-05-05 17:23 | 24.62591 | -77.41992 | 5883 ft | 143 kts | 202° |
| 2026-05-05 17:23 | 24.61571 | -77.42368 | 5738 ft | 169 kts | 201° |
| 2026-05-05 17:23 | 24.60361 | -77.42810 | 5547 ft | 194 kts | 201° |
| 2026-05-05 17:24 | 24.58987 | -77.43311 | 5340 ft | 218 kts | 200° |
| 2026-05-05 17:24 | 24.57491 | -77.43857 | 5126 ft | 238 kts | 200° |
| 2026-05-05 17:24 | 24.55847 | -77.44456 | 4899 ft | 254 kts | 200° |
| 2026-05-05 17:24 | 24.54129 | -77.45083 | 4669 ft | 268 kts | 200° |
| 2026-05-05 17:25 | 24.52326 | -77.45740 | 4437 ft | 279 kts | 200° |
| 2026-05-05 17:25 | 24.51080 | -77.46194 | 4281 ft | 285 kts | 200° |
| 2026-05-05 17:25 | 24.48603 | -77.47096 | 3958 ft | 275 kts | 199° |
| 2026-05-05 17:25 | 24.46825 | -77.47747 | 3707 ft | 263 kts | 201° |
| 2026-05-05 17:26 | 24.45291 | -77.48733 | 3460 ft | 252 kts | 218° |
| 2026-05-05 17:26 | 24.43907 | -77.49883 | 3211 ft | 244 kts | 218° |
| 2026-05-05 17:26 | 24.42570 | -77.50995 | 2961 ft | 238 kts | 218° |
| 2026-05-05 17:26 | 24.41260 | -77.52087 | 2738 ft | 230 kts | 218° |
| 2026-05-05 17:27 | 24.40027 | -77.53114 | 2526 ft | 217 kts | 218° |
| 2026-05-05 17:27 | 24.38860 | -77.54086 | 2278 ft | 207 kts | 218° |
| 2026-05-05 17:27 | 24.37738 | -77.55050 | 2026 ft | 199 kts | 220° |
| 2026-05-05 17:27 | 24.36715 | -77.55981 | 1943 ft | 184 kts | 220° |
| 2026-05-05 17:28 | 24.35769 | -77.56838 | 1930 ft | 167 kts | 220° |
| 2026-05-05 17:28 | 24.34921 | -77.57610 | 1927 ft | 151 kts | 220° |
| 2026-05-05 17:28 | 24.34115 | -77.58344 | 1949 ft | 150 kts | 220° |
| 2026-05-05 17:28 | 24.33302 | -77.59088 | 1950 ft | 152 kts | 220° |
| 2026-05-05 17:29 | 24.32486 | -77.59839 | 1947 ft | 155 kts | 220° |
| 2026-05-05 17:29 | 24.31657 | -77.60601 | 1948 ft | 157 kts | 220° |
| 2026-05-05 17:29 | 24.30814 | -77.61375 | 1950 ft | 158 kts | 220° |
| 2026-05-05 17:29 | 24.29956 | -77.62159 | 1949 ft | 160 kts | 220° |
| 2026-05-05 17:30 | 24.29092 | -77.62949 | 1946 ft | 162 kts | 220° |
| 2026-05-05 17:30 | 24.28218 | -77.63744 | 1952 ft | 164 kts | 220° |
| 2026-05-05 17:30 | 24.27329 | -77.64554 | 1951 ft | 166 kts | 220° |
| 2026-05-05 17:30 | 24.26438 | -77.65366 | 1955 ft | 167 kts | 219° |
| 2026-05-05 17:31 | 24.25537 | -77.66187 | 1949 ft | 170 kts | 220° |
| 2026-05-05 17:31 | 24.24644 | -77.67068 | 1959 ft | 173 kts | 227° |
| 2026-05-05 17:31 | 24.23822 | -77.68066 | 1949 ft | 176 kts | 228° |
| 2026-05-05 17:31 | 24.22996 | -77.69074 | 1951 ft | 182 kts | 227° |
| 2026-05-05 17:32 | 24.22028 | -77.69993 | 1983 ft | 183 kts | 209° |
| 2026-05-05 17:32 | 24.20828 | -77.70345 | 1946 ft | 173 kts | 186° |
| 2026-05-05 17:32 | 24.19662 | -77.70284 | 1687 ft | 171 kts | 173° |
| 2026-05-05 17:32 | 24.18613 | -77.69923 | 1737 ft | 148 kts | 149° |
| 2026-05-05 17:33 | 24.17966 | -77.68989 | 1675 ft | 160 kts | 110° |
| 2026-05-05 17:33 | 24.17703 | -77.67740 | 1509 ft | 171 kts | 101° |
| 2026-05-05 17:33 | 24.17491 | -77.66482 | 1305 ft | 171 kts | 102° |
| 2026-05-05 17:33 | 24.17206 | -77.65207 | 879 ft | 174 kts | 106° |
| 2026-05-05 17:34 | 24.16886 | -77.63918 | 881 ft | 174 kts | 105° |
| 2026-05-05 17:34 | 24.16599 | -77.62640 | 856 ft | 175 kts | 105° |
| 2026-05-05 17:34 | 24.16348 | -77.61354 | 614 ft | 165 kts | 103° |
| 2026-05-05 17:34 | 24.16097 | -77.60131 | 141 ft | 161 kts | 102° |
| 2026-05-05 17:35 | 24.15893 | -77.59023 | 42 ft | 134 kts | 103° |
| 2026-05-05 17:35 | 24.15772 | -77.58385 | 38 ft | 18 kts | 100° |
| 2026-05-05 17:35 | 24.15759 | -77.58315 | 36 ft | 1 kts | 163° |
| 2026-05-05 17:35 | 24.15754 | -77.58329 | 36 ft | 4 kts | 281° |
| 2026-05-05 17:36 | 24.15724 | -77.58411 | 39 ft | 18 kts | 207° |
| 2026-05-05 17:36 | 24.15663 | -77.58425 | 38 ft | 0 kts | 81° |